createdAt,value
2022-10-21T00:01:22.559Z,9.31
2022-10-21T00:04:29.420Z,9.22
2022-10-21T00:07:35.171Z,9.30
2022-10-21T00:10:41.720Z,9.22
2022-10-21T00:13:48.669Z,9.19
2022-10-21T00:16:55.179Z,9.13
2022-10-21T00:19:53.775Z,9.27
2022-10-21T00:23:00.276Z,9.37
2022-10-21T00:26:12.527Z,9.42
2022-10-21T00:29:19.220Z,9.39
2022-10-21T00:32:25.610Z,9.30
2022-10-21T00:35:31.314Z,9.40
2022-10-21T00:38:36.873Z,9.37
2022-10-21T00:41:42.788Z,9.30
2022-10-21T00:44:51.357Z,9.39
2022-10-21T00:48:09.237Z,9.34
2022-10-21T00:51:21.622Z,9.37
2022-10-21T00:54:27.096Z,9.13
2022-10-21T00:57:34.056Z,9.07
2022-10-21T01:00:40.206Z,9.07
2022-10-21T01:03:46.475Z,9.02
2022-10-21T01:06:52.461Z,9.14
2022-10-21T01:09:57.392Z,9.10
2022-10-21T01:13:50.979Z,9.26
2022-10-21T01:17:26.433Z,9.12
2022-10-21T01:20:53.152Z,9.12
2022-10-21T01:24:18.592Z,9.04
2022-10-21T01:27:27.719Z,9.27
2022-10-21T01:30:54.438Z,9.14
2022-10-21T01:34:06.738Z,9.03
2022-10-21T01:37:29.067Z,9.10
2022-10-21T01:40:38.217Z,9.02
2022-10-21T01:43:59.818Z,8.90
2022-10-21T01:47:15.600Z,8.74
2022-10-21T01:50:25.455Z,9.23
2022-10-21T01:53:21.782Z,9.13
2022-10-21T01:56:28.269Z,9.06
2022-10-21T01:59:34.375Z,9.00
2022-10-21T02:02:43.048Z,9.04
2022-10-21T02:05:48.550Z,9.34
2022-10-21T02:08:56.080Z,9.20
2022-10-21T02:12:04.807Z,9.08
2022-10-21T02:15:10.722Z,9.19
2022-10-21T02:18:25.943Z,9.10
2022-10-21T02:21:34.084Z,9.25
2022-10-21T02:24:53.411Z,9.01
2022-10-21T02:27:53.968Z,9.05
2022-10-21T02:31:22.053Z,8.87
2022-10-21T02:34:55.700Z,8.82
2022-10-21T02:38:29.120Z,8.85
2022-10-21T02:41:36.789Z,8.89
2022-10-21T02:44:42.625Z,9.11
2022-10-21T02:47:44.842Z,9.04
2022-10-21T02:50:51.099Z,9.05
2022-10-21T02:53:55.902Z,8.96
2022-10-21T02:57:02.559Z,8.99
2022-10-21T03:00:09.229Z,9.00
2022-10-21T03:03:15.649Z,9.04
2022-10-21T03:06:21.643Z,8.98
2022-10-21T03:09:27.239Z,8.92
2022-10-21T03:12:34.238Z,9.05
2022-10-21T03:15:41.042Z,8.88
2022-10-21T03:18:46.663Z,8.89
2022-10-21T03:21:53.555Z,8.83
2022-10-21T03:25:01.186Z,8.77
2022-10-21T03:28:07.375Z,8.83
2022-10-21T03:31:13.219Z,8.64
2022-10-21T03:34:19.011Z,8.75
2022-10-21T03:37:24.701Z,8.64
2022-10-21T03:40:30.918Z,8.45
2022-10-21T03:43:38.742Z,8.40
2022-10-21T03:46:43.398Z,8.30
2022-10-21T03:49:42.189Z,8.49
2022-10-21T03:52:27.621Z,8.26
2022-10-21T03:55:20.387Z,8.17
2022-10-21T03:58:07.346Z,8.31
2022-10-21T04:01:01.592Z,8.29
2022-10-21T04:03:55.136Z,8.14
2022-10-21T04:07:01.130Z,7.82
2022-10-21T04:10:06.240Z,7.91
2022-10-21T04:13:12.571Z,7.74
2022-10-21T04:16:21.254Z,7.87
2022-10-21T04:19:32.987Z,8.11
2022-10-21T04:22:39.727Z,7.97
2022-10-21T04:25:44.699Z,7.90
2022-10-21T04:28:49.948Z,7.92
2022-10-21T04:35:01.678Z,7.87
2022-10-21T04:38:08.984Z,7.54
2022-10-21T04:41:16.790Z,7.51
2022-10-21T04:44:22.657Z,7.83
2022-10-21T04:47:29.210Z,7.58
2022-10-21T04:50:34.816Z,7.52
2022-10-21T04:53:41.187Z,7.49
2022-10-21T04:56:40.475Z,7.59
2022-10-21T04:59:26.383Z,7.68
2022-10-21T05:02:22.994Z,7.93
2022-10-21T05:05:08.730Z,7.89
2022-10-21T05:08:02.268Z,7.80
2022-10-21T05:11:12.738Z,7.70
2022-10-21T05:14:22.507Z,7.86
2022-10-21T05:17:26.936Z,8.01
2022-10-21T05:20:33.337Z,7.92
2022-10-21T05:23:40.856Z,7.88
2022-10-21T05:26:46.497Z,8.26
2022-10-21T05:29:52.667Z,8.07
2022-10-21T05:32:59.501Z,8.10
2022-10-21T05:36:20.534Z,8.23
2022-10-21T05:39:24.994Z,8.57
2022-10-21T05:42:30.629Z,8.48
2022-10-21T05:45:36.781Z,8.48
2022-10-21T05:48:42.971Z,8.40
2022-10-21T05:51:47.891Z,8.59
2022-10-21T05:54:59.488Z,8.66
2022-10-21T05:58:05.278Z,8.73
2022-10-21T06:01:12.664Z,8.79
2022-10-21T06:04:18.429Z,9.09
2022-10-21T06:07:24.229Z,9.12
2022-10-21T06:10:29.938Z,9.29
2022-10-21T06:13:35.408Z,9.40
2022-10-21T06:16:41.925Z,9.33
2022-10-21T06:19:50.181Z,9.35
2022-10-21T06:22:56.115Z,9.26
2022-10-21T06:26:17.075Z,9.21
2022-10-21T06:29:22.967Z,9.18
2022-10-21T06:32:28.630Z,9.24
2022-10-21T06:35:35.083Z,9.37
2022-10-21T06:38:43.884Z,9.47
2022-10-21T06:41:50.094Z,9.54
2022-10-21T06:45:00.162Z,9.72
2022-10-21T06:47:58.411Z,9.73
2022-10-21T06:51:04.540Z,9.72
2022-10-21T06:54:12.757Z,9.79
2022-10-21T06:57:18.605Z,9.83
2022-10-21T07:00:25.669Z,9.89
2022-10-21T07:03:31.310Z,10.07
2022-10-21T07:06:37.218Z,10.07
2022-10-21T07:09:44.055Z,10.05
2022-10-21T07:12:50.643Z,10.11
2022-10-21T07:15:56.614Z,10.20
2022-10-21T07:18:56.935Z,10.26
2022-10-21T07:22:02.307Z,10.38
2022-10-21T07:25:08.574Z,10.49
2022-10-21T07:28:14.162Z,10.30
2022-10-21T07:31:20.104Z,10.39
2022-10-21T07:34:26.965Z,10.12
2022-10-21T07:37:33.690Z,10.24
2022-10-21T07:40:38.654Z,10.46
2022-10-21T07:43:45.137Z,10.58
2022-10-21T07:46:52.844Z,10.83
2022-10-21T07:49:58.982Z,10.89
2022-10-21T07:53:11.985Z,10.95
2022-10-21T07:56:22.279Z,10.95
2022-10-21T07:59:28.487Z,11.16
2022-10-21T08:02:35.508Z,11.30
2022-10-21T08:05:43.083Z,11.26
2022-10-21T08:08:48.921Z,11.28
2022-10-21T08:11:55.279Z,11.47
2022-10-21T08:14:55.971Z,11.52
2022-10-21T08:17:49.513Z,11.45
2022-10-21T08:20:56.484Z,11.59
2022-10-21T08:24:01.580Z,11.66
2022-10-21T08:27:07.179Z,11.93
2022-10-21T08:30:13.079Z,11.81
2022-10-21T08:33:19.577Z,11.86
2022-10-21T08:36:28.880Z,11.83
2022-10-21T08:39:34.397Z,11.86
2022-10-21T08:42:40.517Z,11.86
2022-10-21T08:45:59.824Z,11.75
2022-10-21T08:49:10.875Z,11.94
2022-10-21T08:52:20.332Z,11.84
2022-10-21T08:55:53.664Z,11.72
2022-10-21T08:59:02.060Z,11.73
2022-10-21T09:02:31.700Z,11.78
2022-10-21T09:06:02.764Z,11.83
2022-10-21T09:09:22.692Z,12.03
2022-10-21T09:12:48.006Z,12.15
2022-10-21T09:16:05.673Z,12.25
2022-10-21T09:19:56.205Z,12.17
2022-10-21T09:23:46.636Z,12.25
2022-10-21T09:27:02.583Z,12.34
2022-10-21T09:30:17.354Z,12.42
2022-10-21T09:33:39.985Z,12.52
2022-10-21T09:36:54.742Z,12.63
2022-10-21T09:40:05.329Z,12.63
2022-10-21T09:43:12.792Z,12.60
2022-10-21T09:46:12.028Z,12.59
2022-10-21T09:49:36.372Z,12.52
2022-10-21T09:51:53.970Z,12.50
2022-10-21T09:54:59.415Z,12.51
2022-10-21T09:58:15.079Z,12.47
2022-10-21T10:01:23.653Z,12.65
2022-10-21T10:04:46.983Z,12.81
2022-10-21T10:07:52.753Z,12.61
2022-10-21T10:10:57.889Z,12.31
2022-10-21T10:14:08.136Z,12.25
2022-10-21T10:17:35.833Z,12.08
2022-10-21T10:20:42.473Z,11.94
2022-10-21T10:24:01.734Z,12.10
2022-10-21T10:27:06.773Z,12.24
2022-10-21T10:30:13.383Z,12.25
2022-10-21T10:33:28.808Z,12.27
2022-10-21T10:36:48.588Z,12.44
2022-10-21T10:39:54.893Z,12.48
2022-10-21T10:43:01.416Z,12.34
2022-10-21T10:46:13.705Z,12.56
2022-10-21T10:49:32.950Z,12.65
2022-10-21T10:52:39.552Z,12.57
2022-10-21T10:55:45.339Z,12.62
2022-10-21T10:58:52.861Z,12.57
2022-10-21T11:02:26.173Z,12.54
2022-10-21T11:05:40.579Z,12.62
2022-10-21T11:08:50.432Z,12.62
2022-10-21T11:12:03.025Z,12.61
2022-10-21T11:15:12.128Z,12.67
2022-10-21T11:18:30.429Z,12.64
2022-10-21T11:22:03.770Z,12.60
2022-10-21T11:25:27.306Z,12.52
2022-10-21T11:28:54.457Z,12.60
2022-10-21T11:32:16.104Z,12.60
2022-10-21T11:35:39.000Z,12.66
2022-10-21T11:39:11.019Z,12.50
2022-10-21T11:42:48.816Z,12.57
2022-10-21T11:46:14.103Z,12.43
2022-10-21T11:49:36.369Z,12.46
2022-10-21T11:53:19.290Z,12.35
2022-10-21T11:56:47.332Z,12.18
2022-10-21T12:00:09.493Z,12.14
2022-10-21T12:03:34.586Z,12.06
2022-10-21T12:07:00.640Z,12.11
2022-10-21T12:10:33.517Z,12.07
2022-10-21T12:14:04.867Z,12.07
2022-10-21T12:17:11.342Z,11.94
2022-10-21T12:20:23.711Z,11.90
2022-10-21T12:23:32.095Z,11.98
2022-10-21T12:26:47.429Z,11.93
2022-10-21T12:30:15.686Z,11.91
2022-10-21T12:33:52.599Z,11.98
2022-10-21T12:36:55.912Z,12.07
2022-10-21T12:40:03.990Z,12.15
2022-10-21T12:43:37.641Z,12.21
2022-10-21T12:46:57.852Z,12.07
2022-10-21T12:50:21.920Z,12.05
2022-10-21T12:53:49.609Z,11.96
2022-10-21T12:57:02.012Z,11.97
2022-10-21T13:00:07.278Z,12.02
2022-10-21T13:03:26.496Z,11.94
2022-10-21T13:06:32.624Z,11.96
2022-10-21T13:10:05.423Z,12.03
2022-10-21T13:13:35.171Z,11.97
2022-10-21T13:16:43.703Z,12.03
2022-10-21T13:19:48.753Z,11.96
2022-10-21T13:23:01.802Z,11.95
2022-10-21T13:26:28.169Z,12.17
2022-10-21T13:29:52.141Z,12.09
2022-10-21T13:32:59.269Z,12.09
2022-10-21T13:36:10.904Z,11.92
2022-10-21T13:39:22.262Z,11.81
2022-10-21T13:42:28.677Z,11.65
2022-10-21T13:45:44.735Z,11.56
2022-10-21T13:48:55.383Z,11.42
2022-10-21T13:52:01.714Z,11.43
2022-10-21T13:55:08.114Z,11.32
2022-10-21T13:58:14.532Z,11.44
2022-10-21T14:01:30.998Z,11.42
2022-10-21T14:04:40.246Z,11.28
2022-10-21T14:07:46.819Z,11.09
2022-10-21T14:10:52.678Z,11.12
2022-10-21T14:13:58.125Z,11.08
2022-10-21T14:17:17.775Z,11.13
2022-10-21T14:20:29.159Z,10.92
2022-10-21T14:23:35.324Z,10.56
2022-10-21T14:26:41.045Z,10.62
2022-10-21T14:29:49.011Z,10.33
2022-10-21T14:32:56.954Z,10.20
2022-10-21T14:36:25.887Z,10.08
2022-10-21T14:39:33.371Z,9.98
2022-10-21T14:42:39.907Z,9.90
2022-10-21T14:45:52.802Z,10.02
2022-10-21T14:49:12.320Z,9.77
2022-10-21T14:52:21.534Z,9.65
2022-10-21T14:55:38.851Z,9.53
2022-10-21T14:58:53.863Z,9.35
2022-10-21T15:01:59.643Z,9.23
2022-10-21T15:05:08.622Z,9.01
2022-10-21T15:08:43.659Z,8.79
2022-10-21T15:11:52.920Z,8.81
2022-10-21T15:14:58.453Z,8.72
2022-10-21T15:18:07.431Z,8.58
2022-10-21T15:21:29.965Z,8.44
2022-10-21T15:24:56.427Z,8.39
2022-10-21T15:28:03.560Z,8.42
2022-10-21T15:31:09.731Z,8.39
2022-10-21T15:34:16.512Z,8.36
2022-10-21T15:37:23.276Z,8.31
2022-10-21T15:40:28.802Z,8.23
2022-10-21T15:43:34.857Z,8.24
2022-10-21T15:46:41.154Z,8.20
2022-10-21T15:49:56.760Z,8.18
2022-10-21T15:53:02.329Z,8.24
2022-10-21T15:56:07.878Z,8.11
2022-10-21T15:59:13.539Z,7.97
2022-10-21T16:02:19.214Z,7.71
2022-10-21T16:05:24.935Z,7.75
2022-10-21T16:08:30.549Z,7.61
2022-10-21T16:11:41.033Z,7.60
2022-10-21T16:14:44.900Z,7.59
2022-10-21T16:17:51.493Z,7.52
2022-10-21T16:20:58.570Z,7.49
2022-10-21T16:24:05.390Z,7.45
2022-10-21T16:27:11.123Z,7.22
2022-10-21T16:30:32.549Z,6.98
2022-10-21T16:33:39.759Z,7.11
2022-10-21T16:36:45.986Z,6.91
2022-10-21T16:39:52.462Z,6.91
2022-10-21T16:42:57.870Z,6.78
2022-10-21T16:46:03.595Z,6.63
2022-10-21T16:49:11.991Z,6.56
2022-10-21T16:52:17.191Z,6.48
2022-10-21T16:55:27.107Z,6.43
2022-10-21T16:58:33.323Z,6.47
2022-10-21T17:01:40.178Z,6.31
2022-10-21T17:04:45.860Z,6.25
2022-10-21T17:07:52.447Z,6.19
2022-10-21T17:10:58.788Z,6.11
2022-10-21T17:14:05.456Z,6.11
2022-10-21T17:17:11.256Z,6.11
2022-10-21T17:20:17.642Z,6.00
2022-10-21T17:23:24.788Z,5.96
2022-10-21T17:26:30.964Z,5.95
2022-10-21T17:29:36.772Z,6.02
2022-10-21T17:35:41.867Z,6.12
2022-10-21T17:38:48.841Z,6.13
2022-10-21T17:41:55.378Z,6.13
2022-10-21T17:45:03.794Z,6.26
2022-10-21T17:48:10.201Z,5.92
2022-10-21T17:51:17.105Z,6.00
2022-10-21T17:54:26.516Z,5.99
2022-10-21T17:57:31.005Z,6.05
2022-10-21T18:00:39.952Z,5.97
2022-10-21T18:03:45.614Z,6.09
2022-10-21T18:06:52.617Z,6.06
2022-10-21T18:09:58.074Z,5.87
2022-10-21T18:12:57.888Z,5.94
2022-10-21T18:15:49.573Z,5.77
2022-10-21T18:21:30.569Z,5.66
2022-10-21T18:24:26.882Z,5.46
2022-10-21T18:27:12.667Z,5.51
2022-10-21T18:30:06.003Z,5.45
2022-10-21T18:32:58.954Z,5.29
2022-10-21T18:36:05.119Z,5.12
2022-10-21T18:39:12.565Z,5.09
2022-10-21T18:42:19.929Z,4.99
2022-10-21T18:45:25.876Z,4.90
2022-10-21T18:48:31.473Z,4.86
2022-10-21T18:51:37.543Z,4.91
2022-10-21T18:54:36.669Z,4.84
2022-10-21T18:57:43.061Z,4.75
2022-10-21T19:00:50.971Z,4.72
2022-10-21T19:03:58.891Z,4.58
2022-10-21T19:07:06.168Z,4.55
2022-10-21T19:10:13.028Z,4.50
2022-10-21T19:13:19.728Z,4.43
2022-10-21T19:16:25.686Z,4.31
2022-10-21T19:19:35.901Z,4.40
2022-10-21T19:22:39.944Z,4.29
2022-10-21T19:25:47.119Z,4.35
2022-10-21T19:28:53.742Z,4.34
2022-10-21T19:32:00.404Z,4.28
2022-10-21T19:35:07.501Z,4.35
2022-10-21T19:38:20.857Z,4.27
2022-10-21T19:41:27.581Z,4.28
2022-10-21T19:44:34.749Z,4.08
2022-10-21T19:47:41.307Z,4.04
2022-10-21T19:50:47.753Z,4.07
2022-10-21T19:53:54.265Z,4.08
2022-10-21T19:57:00.463Z,4.21
2022-10-21T20:00:05.859Z,4.17
2022-10-21T20:03:10.999Z,4.10
2022-10-21T20:06:24.694Z,4.08
2022-10-21T20:09:32.817Z,4.24
2022-10-21T20:12:38.836Z,4.10
2022-10-21T20:15:47.206Z,4.07
2022-10-21T20:18:54.420Z,4.03
2022-10-21T20:22:00.271Z,4.03
2022-10-21T20:25:09.296Z,4.02
2022-10-21T20:28:14.528Z,4.05
2022-10-21T20:31:23.757Z,4.03
2022-10-21T20:34:28.466Z,4.06
2022-10-21T20:37:34.748Z,3.99
2022-10-21T20:40:40.655Z,4.00
2022-10-21T20:43:45.456Z,4.03
2022-10-21T20:46:51.287Z,4.03
2022-10-21T20:49:57.068Z,3.98
2022-10-21T20:53:03.908Z,3.97
2022-10-21T20:56:12.999Z,4.00
2022-10-21T20:59:19.368Z,4.04
2022-10-21T21:02:25.288Z,3.98
2022-10-21T21:05:31.596Z,3.94
2022-10-21T21:08:41.479Z,3.91
2022-10-21T21:11:46.167Z,3.88
2022-10-21T21:14:52.264Z,3.80
2022-10-21T21:18:03.190Z,3.68
2022-10-21T21:21:10.469Z,3.70
2022-10-21T21:24:15.948Z,3.65
2022-10-21T21:27:21.565Z,3.62
2022-10-21T21:30:26.884Z,3.61
2022-10-21T21:33:32.826Z,3.63
2022-10-21T21:36:38.494Z,3.66
2022-10-21T21:39:44.932Z,3.69
2022-10-21T21:42:50.608Z,3.84
2022-10-21T21:46:02.405Z,3.79
2022-10-21T21:49:10.501Z,3.71
2022-10-21T21:52:16.008Z,3.68
2022-10-21T21:55:22.178Z,3.75
2022-10-21T21:58:27.976Z,3.76
2022-10-21T22:01:35.692Z,3.78
2022-10-21T22:04:42.418Z,3.72
2022-10-21T22:07:47.159Z,3.73
2022-10-21T22:10:53.447Z,3.76
2022-10-21T22:14:00.113Z,3.78
2022-10-21T22:17:06.998Z,3.77
2022-10-21T22:20:12.681Z,3.78
2022-10-21T22:23:18.115Z,3.74
2022-10-21T22:26:24.178Z,3.80
2022-10-21T22:29:30.141Z,3.83
2022-10-21T22:32:36.432Z,3.83
2022-10-21T22:35:43.250Z,3.94
2022-10-21T22:38:49.894Z,3.92
2022-10-21T22:41:56.301Z,3.96
2022-10-21T22:45:02.623Z,4.05
2022-10-21T22:48:08.008Z,4.02
2022-10-21T22:51:13.769Z,4.08
2022-10-21T22:54:42.965Z,4.09
2022-10-21T22:57:25.814Z,4.09
2022-10-21T23:00:31.555Z,4.08
2022-10-21T23:03:37.135Z,4.03
2022-10-21T23:06:48.325Z,3.98
2022-10-21T23:09:57.431Z,4.09
2022-10-21T23:13:03.829Z,4.06
2022-10-21T23:16:09.550Z,4.17
2022-10-21T23:19:16.386Z,4.19
2022-10-21T23:22:22.390Z,4.18
2022-10-21T23:25:29.707Z,4.11
2022-10-21T23:28:36.038Z,3.97
2022-10-21T23:31:41.705Z,3.75
2022-10-21T23:34:48.071Z,3.46
2022-10-21T23:37:54.287Z,3.36
2022-10-21T23:40:59.961Z,3.32
2022-10-21T23:43:52.759Z,3.54
2022-10-21T23:46:59.458Z,3.58
2022-10-21T23:50:05.230Z,3.66
2022-10-21T23:53:10.920Z,3.73
2022-10-21T23:56:17.664Z,3.76
2022-10-21T23:59:23.257Z,3.63
